createdAt,value
2018-12-17T00:01:03.161Z,71.70
2018-12-17T00:03:35.663Z,70.80
2018-12-17T00:06:07.906Z,75.80
2018-12-17T00:08:38.158Z,68.13
2018-12-17T00:11:14.398Z,69.33
2018-12-17T00:13:44.837Z,72.93
2018-12-17T00:16:15.313Z,72.00
2018-12-17T00:18:46.594Z,72.50
2018-12-17T00:21:17.238Z,68.43
2018-12-17T00:23:47.468Z,67.07
2018-12-17T00:26:17.975Z,70.93
2018-12-17T00:28:48.190Z,71.13
2018-12-17T00:31:18.521Z,70.50
2018-12-17T00:33:48.655Z,70.77
2018-12-17T00:36:19.019Z,70.40
2018-12-17T00:38:49.448Z,67.83
2018-12-17T00:41:19.524Z,68.33
2018-12-17T00:43:49.988Z,70.03
2018-12-17T00:46:19.906Z,74.13
2018-12-17T00:48:49.980Z,69.10
2018-12-17T00:51:21.219Z,68.33
2018-12-17T00:53:52.146Z,69.77
2018-12-17T00:56:22.402Z,68.23
2018-12-17T00:58:52.695Z,68.77
2018-12-17T01:01:23.074Z,71.87
2018-12-17T01:03:53.110Z,75.90
2018-12-17T01:06:23.149Z,76.37
2018-12-17T01:08:53.254Z,75.87
2018-12-17T01:11:26.075Z,76.17
2018-12-17T01:13:56.332Z,72.00
2018-12-17T01:16:26.618Z,71.10
2018-12-17T01:18:56.954Z,74.97
2018-12-17T01:21:27.663Z,71.43
2018-12-17T01:23:57.800Z,78.13
2018-12-17T01:26:43.302Z,77.47
2018-12-17T01:29:13.672Z,73.73
2018-12-17T01:31:44.520Z,71.57
2018-12-17T01:34:14.834Z,77.00
2018-12-17T01:36:45.154Z,72.43
2018-12-17T01:39:15.751Z,75.43
2018-12-17T01:41:45.797Z,72.10
2018-12-17T01:44:16.147Z,67.60
2018-12-17T01:46:46.551Z,68.83
2018-12-17T01:49:16.777Z,66.17
2018-12-17T01:51:46.965Z,58.23
2018-12-17T01:54:17.285Z,64.00
2018-12-17T01:56:47.331Z,63.30
2018-12-17T01:59:18.051Z,61.03
2018-12-17T02:01:48.593Z,59.73
2018-12-17T02:04:18.949Z,65.30
2018-12-17T02:06:48.960Z,72.07
2018-12-17T02:09:19.791Z,65.87
2018-12-17T02:11:50.186Z,72.80
2018-12-17T02:14:20.220Z,79.60
2018-12-17T02:16:50.296Z,78.47
2018-12-17T02:19:20.485Z,81.90
2018-12-17T02:21:50.801Z,86.63
2018-12-17T02:24:20.706Z,82.63
2018-12-17T02:26:50.904Z,85.83
2018-12-17T02:29:20.849Z,87.83
2018-12-17T02:31:50.888Z,78.40
2018-12-17T02:34:21.171Z,86.13
2018-12-17T02:36:51.109Z,83.07
2018-12-17T02:39:21.499Z,80.67
2018-12-17T02:41:51.826Z,83.37
2018-12-17T02:44:22.131Z,82.20
2018-12-17T02:46:52.272Z,77.77
2018-12-17T02:49:22.753Z,77.93
2018-12-17T02:51:53.087Z,82.33
2018-12-17T02:54:23.162Z,78.23
2018-12-17T02:56:53.372Z,81.70
2018-12-17T02:59:23.388Z,82.87
2018-12-17T03:01:53.741Z,82.77
2018-12-17T03:04:24.170Z,82.13
2018-12-17T03:06:54.515Z,89.70
2018-12-17T03:09:24.388Z,90.50
2018-12-17T03:11:59.928Z,86.30
2018-12-17T03:14:30.209Z,83.50
2018-12-17T03:17:00.423Z,86.77
2018-12-17T03:19:30.663Z,82.67
2018-12-17T03:22:00.697Z,88.33
2018-12-17T03:24:30.798Z,80.23
2018-12-17T03:27:00.983Z,79.90
2018-12-17T03:29:31.144Z,81.47
2018-12-17T03:32:01.561Z,86.23
2018-12-17T03:34:31.607Z,81.23
2018-12-17T03:37:01.628Z,80.33
2018-12-17T03:39:31.646Z,81.13
2018-12-17T03:42:01.938Z,83.80
2018-12-17T03:44:32.492Z,75.10
2018-12-17T03:47:02.479Z,72.73
2018-12-17T03:49:32.540Z,74.27
2018-12-17T03:52:03.060Z,78.07
2018-12-17T03:54:33.189Z,77.63
2018-12-17T03:57:03.371Z,71.97
2018-12-17T03:59:33.523Z,78.23
2018-12-17T04:02:09.790Z,75.40
2018-12-17T04:04:40.006Z,69.03
2018-12-17T04:07:10.134Z,71.43
2018-12-17T04:09:40.527Z,69.50
2018-12-17T04:12:10.763Z,70.73
2018-12-17T04:14:41.314Z,72.57
2018-12-17T04:17:11.266Z,65.90
2018-12-17T04:19:41.836Z,72.20
2018-12-17T04:22:12.807Z,71.80
2018-12-17T04:24:42.862Z,66.97
2018-12-17T04:27:13.657Z,69.20
2018-12-17T04:29:43.761Z,66.27
2018-12-17T04:32:14.680Z,70.27
2018-12-17T04:34:45.374Z,63.53
2018-12-17T04:37:15.692Z,63.30
2018-12-17T04:39:46.214Z,61.50
2018-12-17T04:42:17.302Z,64.43
2018-12-17T04:44:47.406Z,60.50
2018-12-17T04:47:18.052Z,66.50
2018-12-17T04:49:47.969Z,67.10
2018-12-17T04:52:18.550Z,71.67
2018-12-17T04:54:48.592Z,64.33
2018-12-17T04:57:19.001Z,68.40
2018-12-17T04:59:49.284Z,70.17
2018-12-17T05:02:28.760Z,70.50
2018-12-17T05:04:59.098Z,70.87
2018-12-17T05:07:29.330Z,67.07
2018-12-17T05:09:59.440Z,72.77
2018-12-17T05:12:30.187Z,72.27
2018-12-17T05:15:01.013Z,63.40
2018-12-17T05:17:32.203Z,65.57
2018-12-17T05:20:02.369Z,57.97
2018-12-17T05:22:32.744Z,63.10
2018-12-17T05:25:02.855Z,66.33
2018-12-17T05:27:33.182Z,62.13
2018-12-17T05:30:03.403Z,64.70
2018-12-17T05:32:39.852Z,69.10
2018-12-17T05:35:09.901Z,64.63
2018-12-17T05:37:41.390Z,65.57
2018-12-17T05:40:15.071Z,61.13
2018-12-17T05:42:46.847Z,67.53
2018-12-17T05:45:17.310Z,66.63
2018-12-17T05:47:47.379Z,68.90
2018-12-17T05:50:17.620Z,67.27
2018-12-17T05:52:47.939Z,68.77
2018-12-17T05:55:18.492Z,67.80
2018-12-17T05:57:49.008Z,73.63
2018-12-17T06:00:19.361Z,68.37
2018-12-17T06:02:49.799Z,69.83
2018-12-17T06:05:20.247Z,67.93
2018-12-17T06:07:50.314Z,65.77
2018-12-17T06:10:20.375Z,66.33
2018-12-17T06:12:51.837Z,66.13
2018-12-17T06:15:21.909Z,65.13
2018-12-17T06:17:52.106Z,65.53
2018-12-17T06:20:22.584Z,65.70
2018-12-17T06:22:52.809Z,73.57
2018-12-17T06:25:22.788Z,68.20
2018-12-17T06:27:52.885Z,69.47
2018-12-17T06:30:22.844Z,65.50
2018-12-17T06:32:52.940Z,68.87
2018-12-17T06:35:23.033Z,68.00
2018-12-17T06:37:53.970Z,70.10
2018-12-17T06:40:24.199Z,71.87
2018-12-17T06:42:54.306Z,70.40
2018-12-17T06:45:24.485Z,67.57
2018-12-17T06:47:54.849Z,67.82
2018-12-17T06:50:25.217Z,73.13
2018-12-17T06:52:55.646Z,66.83
2018-12-17T06:55:25.756Z,71.67
2018-12-17T06:57:56.144Z,69.30
2018-12-17T07:00:26.147Z,79.87
2018-12-17T07:02:56.478Z,73.33
2018-12-17T07:05:26.741Z,77.40
2018-12-17T07:07:56.801Z,71.47
2018-12-17T07:10:26.880Z,75.93
2018-12-17T07:12:58.592Z,75.40
2018-12-17T07:15:29.665Z,68.83
2018-12-17T07:17:59.675Z,72.17
2018-12-17T07:20:29.771Z,68.63
2018-12-17T07:22:59.994Z,76.87
2018-12-17T07:25:29.941Z,70.90
2018-12-17T07:27:59.998Z,80.97
2018-12-17T07:30:30.182Z,81.37
2018-12-17T07:33:00.336Z,79.00
2018-12-17T07:35:30.578Z,81.27
2018-12-17T07:38:01.008Z,79.30
2018-12-17T07:40:31.200Z,80.93
2018-12-17T07:43:06.472Z,77.13
2018-12-17T07:45:36.701Z,67.00
2018-12-17T07:48:07.964Z,73.80
2018-12-17T07:50:37.949Z,75.83
2018-12-17T07:53:08.785Z,72.67
2018-12-17T07:55:39.109Z,79.00
2018-12-17T07:58:09.516Z,70.83
2018-12-17T08:00:39.780Z,72.70
2018-12-17T08:03:11.145Z,76.03
2018-12-17T08:05:42.827Z,82.20
2018-12-17T08:08:14.523Z,75.20
2018-12-17T08:10:44.976Z,77.60
2018-12-17T08:13:16.542Z,78.07
2018-12-17T08:15:46.822Z,80.90
2018-12-17T08:18:23.383Z,79.87
2018-12-17T08:20:54.347Z,73.97
2018-12-17T08:23:24.755Z,76.23
2018-12-17T08:25:55.147Z,77.17
2018-12-17T08:28:25.360Z,77.30
2018-12-17T08:30:56.131Z,79.87
2018-12-17T08:33:26.667Z,79.67
2018-12-17T08:35:58.087Z,79.13
2018-12-17T08:38:29.569Z,80.57
2018-12-17T08:41:00.271Z,82.93
2018-12-17T08:43:30.562Z,78.27
2018-12-17T08:46:01.022Z,83.13
2018-12-17T08:48:30.974Z,82.60
2018-12-17T08:51:02.827Z,80.17
2018-12-17T08:53:32.932Z,88.67
2018-12-17T08:56:03.095Z,86.27
2018-12-17T08:58:33.282Z,89.77
2018-12-17T09:01:03.697Z,81.93
2018-12-17T09:03:33.846Z,82.67
2018-12-17T09:06:04.032Z,87.43
2018-12-17T09:08:34.049Z,81.33
2018-12-17T09:11:04.226Z,89.40
2018-12-17T09:13:34.286Z,90.40
2018-12-17T09:16:04.314Z,83.07
2018-12-17T09:18:35.606Z,83.53
2018-12-17T09:21:06.098Z,94.43
2018-12-17T09:23:36.578Z,86.87
2018-12-17T09:26:06.970Z,90.17
2018-12-17T09:28:38.663Z,83.10
2018-12-17T09:31:09.411Z,96.53
2018-12-17T09:33:39.977Z,93.13
2018-12-17T09:36:11.429Z,85.70
2018-12-17T09:38:41.917Z,89.07
2018-12-17T09:41:12.715Z,92.50
2018-12-17T09:43:43.003Z,96.77
2018-12-17T09:46:14.230Z,92.20
2018-12-17T09:48:44.977Z,95.50
2018-12-17T09:51:19.517Z,91.87
2018-12-17T09:53:47.546Z,92.60
2018-12-17T09:56:18.679Z,88.57
2018-12-17T09:58:48.812Z,93.50
2018-12-17T10:01:19.337Z,94.37
2018-12-17T10:03:49.693Z,99.63
2018-12-17T10:09:06.793Z,100.30
2018-12-17T10:11:44.105Z,101.30
2018-12-17T10:14:14.823Z,97.13
2018-12-17T10:16:45.316Z,96.13
2018-12-17T10:19:15.766Z,95.60
2018-12-17T10:21:46.409Z,98.77
2018-12-17T10:24:17.337Z,97.40
2018-12-17T10:26:47.426Z,97.37
2018-12-17T10:29:17.874Z,99.87
2018-12-17T10:31:48.139Z,100.87
2018-12-17T10:34:19.020Z,98.37
2018-12-17T10:36:49.241Z,100.67
2018-12-17T10:39:19.456Z,99.73
2018-12-17T10:41:49.704Z,97.20
2018-12-17T10:44:21.778Z,95.57
2018-12-17T10:46:52.221Z,106.53
2018-12-17T10:49:22.635Z,102.00
2018-12-17T10:51:52.562Z,102.53
2018-12-17T10:54:22.662Z,97.63
2018-12-17T10:56:52.632Z,97.43
2018-12-17T10:59:22.872Z,107.33
2018-12-17T11:01:59.991Z,104.03
2018-12-17T11:04:36.247Z,103.87
2018-12-17T11:07:06.521Z,104.90
2018-12-17T11:09:36.640Z,101.97
2018-12-17T11:12:07.305Z,98.27
2018-12-17T11:14:37.261Z,106.47
2018-12-17T11:17:07.964Z,97.30
2018-12-17T11:19:38.048Z,105.33
2018-12-17T11:22:08.369Z,105.47
2018-12-17T11:24:38.395Z,102.77
2018-12-17T11:27:08.765Z,100.67
2018-12-17T11:29:39.088Z,104.17
2018-12-17T11:32:11.657Z,100.00
2018-12-17T11:34:41.446Z,107.53
2018-12-17T11:37:11.973Z,107.57
2018-12-17T11:39:42.202Z,104.90
2018-12-17T11:42:13.336Z,107.77
2018-12-17T11:44:43.491Z,103.13
2018-12-17T11:47:14.249Z,110.43
2018-12-17T11:49:44.955Z,103.40
2018-12-17T11:52:20.705Z,103.27
2018-12-17T11:54:51.097Z,99.83
2018-12-17T11:58:35.659Z,102.37
2018-12-17T12:01:09.177Z,96.80
2018-12-17T12:03:41.256Z,97.17
2018-12-17T12:06:14.162Z,100.70
2018-12-17T12:08:45.497Z,98.97
2018-12-17T12:11:16.235Z,101.33
2018-12-17T12:13:46.646Z,105.20
2018-12-17T12:16:17.273Z,95.83
2018-12-17T12:18:48.999Z,107.93
2018-12-17T12:21:24.714Z,102.47
2018-12-17T12:23:54.967Z,108.33
2018-12-17T12:26:25.153Z,92.83
2018-12-17T12:28:55.691Z,108.30
2018-12-17T12:31:26.297Z,107.03
2018-12-17T12:33:56.646Z,107.17
2018-12-17T12:36:27.104Z,104.77
2018-12-17T12:38:57.041Z,103.67
2018-12-17T12:41:27.674Z,105.83
2018-12-17T12:43:58.114Z,107.43
2018-12-17T12:46:28.402Z,107.97
2018-12-17T12:48:58.713Z,106.03
2018-12-17T12:51:32.563Z,112.03
2018-12-17T12:54:01.540Z,108.27
2018-12-17T12:56:31.695Z,112.67
2018-12-17T12:59:01.889Z,105.73
2018-12-17T13:01:33.646Z,115.77
2018-12-17T13:04:06.217Z,115.33
2018-12-17T13:06:38.544Z,111.10
2018-12-17T13:09:11.806Z,116.50
2018-12-17T13:11:46.634Z,106.10
2018-12-17T13:14:18.490Z,117.07
2018-12-17T13:16:48.604Z,114.67
2018-12-17T13:19:19.082Z,122.43
2018-12-17T13:21:49.414Z,123.30
2018-12-17T13:24:19.743Z,120.70
2018-12-17T13:26:49.883Z,124.67
2018-12-17T13:29:20.116Z,122.30
2018-12-17T13:31:50.320Z,120.37
2018-12-17T13:34:21.277Z,126.97
2018-12-17T13:36:53.153Z,120.50
2018-12-17T13:39:23.967Z,117.67
2018-12-17T13:41:54.913Z,120.13
2018-12-17T13:44:25.077Z,117.23
2018-12-17T13:46:56.326Z,116.70
2018-12-17T13:49:27.709Z,135.87
2018-12-17T13:52:03.177Z,122.97
2018-12-17T13:54:33.596Z,126.87
2018-12-17T13:57:03.788Z,120.00
2018-12-17T13:59:34.357Z,122.67
2018-12-17T14:02:05.045Z,122.70
2018-12-17T14:04:35.147Z,124.63
2018-12-17T14:07:11.465Z,122.57
2018-12-17T14:10:46.729Z,121.20
2018-12-17T14:13:17.291Z,124.03
2018-12-17T14:15:51.492Z,121.10
2018-12-17T14:18:26.665Z,119.37
2018-12-17T14:21:02.179Z,126.30
2018-12-17T14:23:32.500Z,121.67
2018-12-17T14:26:03.350Z,134.03
2018-12-17T14:28:34.862Z,123.00
2018-12-17T14:31:05.334Z,134.27
2018-12-17T14:33:35.919Z,129.10
2018-12-17T14:36:09.930Z,125.80
2018-12-17T14:38:41.962Z,130.77
2018-12-17T14:41:13.387Z,129.63
2018-12-17T14:43:43.585Z,136.00
2018-12-17T14:46:14.553Z,134.63
2018-12-17T14:48:44.993Z,145.40
2018-12-17T14:51:17.967Z,140.00
2018-12-17T14:53:48.616Z,127.70
2018-12-17T14:56:18.852Z,125.90
2018-12-17T14:58:49.768Z,136.93
2018-12-17T15:01:20.231Z,134.40
2018-12-17T15:03:51.721Z,145.80
2018-12-17T15:06:22.085Z,122.87
2018-12-17T15:08:52.700Z,154.23
2018-12-17T15:11:26.833Z,138.30
2018-12-17T15:13:57.005Z,138.87
2018-12-17T15:16:27.112Z,134.87
2018-12-17T15:18:57.690Z,136.50
2018-12-17T15:21:28.489Z,146.80
2018-12-17T15:23:59.229Z,142.83
2018-12-17T15:26:29.482Z,135.27
2018-12-17T15:28:59.804Z,140.67
2018-12-17T15:31:30.725Z,164.30
2018-12-17T15:34:01.318Z,162.50
2018-12-17T15:36:31.368Z,184.93
2018-12-17T15:39:01.740Z,183.60
2018-12-17T15:41:32.542Z,170.13
2018-12-17T15:44:03.442Z,160.10
2018-12-17T15:46:33.506Z,139.50
2018-12-17T15:49:03.494Z,137.27
2018-12-17T15:51:33.887Z,135.33
2018-12-17T15:54:04.573Z,135.67
2018-12-17T15:56:35.017Z,133.87
2018-12-17T15:59:06.329Z,135.20
2018-12-17T16:01:36.437Z,131.37
2018-12-17T16:04:07.293Z,141.13
2018-12-17T16:06:38.005Z,136.00
2018-12-17T16:09:09.042Z,135.87
2018-12-17T16:11:41.096Z,145.30
2018-12-17T16:14:11.366Z,130.83
2018-12-17T16:16:42.008Z,136.60
2018-12-17T16:19:12.985Z,131.73
2018-12-17T16:21:43.182Z,137.73
2018-12-17T16:24:14.048Z,132.00
2018-12-17T16:26:44.508Z,141.57
2018-12-17T16:29:15.203Z,137.87
2018-12-17T16:31:45.414Z,143.20
2018-12-17T16:34:15.888Z,156.30
2018-12-17T16:36:47.717Z,151.13
2018-12-17T16:39:17.844Z,145.43
2018-12-17T16:41:48.041Z,137.83
2018-12-17T16:44:18.543Z,155.17
2018-12-17T16:46:48.731Z,170.60
2018-12-17T16:49:19.253Z,163.60
2018-12-17T16:51:49.371Z,147.10
2018-12-17T16:54:20.721Z,135.97
2018-12-17T16:56:50.907Z,134.10
2018-12-17T16:59:21.838Z,130.87
2018-12-17T17:01:52.099Z,132.37
2018-12-17T17:04:22.308Z,130.53
2018-12-17T17:06:52.386Z,132.30
2018-12-17T17:09:22.820Z,127.13
2018-12-17T17:11:53.038Z,135.23
2018-12-17T17:14:23.318Z,132.73
2018-12-17T17:16:53.792Z,137.30
2018-12-17T17:19:23.820Z,141.93
2018-12-17T17:21:53.933Z,144.30
2018-12-17T17:24:24.252Z,151.53
2018-12-17T17:26:56.040Z,144.63
2018-12-17T17:29:27.217Z,127.87
2018-12-17T17:31:57.673Z,126.27
2018-12-17T17:34:28.326Z,125.40
2018-12-17T17:36:58.645Z,123.63
2018-12-17T17:39:29.134Z,124.10
2018-12-17T17:41:59.793Z,119.77
2018-12-17T17:44:30.083Z,130.50
2018-12-17T17:47:00.456Z,121.87
2018-12-17T17:49:30.762Z,125.27
2018-12-17T17:52:01.573Z,120.87
2018-12-17T17:54:32.023Z,120.77
2018-12-17T17:57:02.518Z,131.23
2018-12-17T17:59:32.671Z,133.60
2018-12-17T18:02:03.295Z,131.70
2018-12-17T18:04:33.340Z,126.87
2018-12-17T18:07:03.793Z,118.23
2018-12-17T18:09:34.189Z,128.23
2018-12-17T18:12:04.622Z,145.07
2018-12-17T18:14:34.659Z,130.50
2018-12-17T18:17:06.265Z,135.00
2018-12-17T18:19:36.542Z,124.23
2018-12-17T18:22:07.483Z,122.97
2018-12-17T18:24:37.829Z,135.77
2018-12-17T18:27:08.798Z,125.43
2018-12-17T18:29:38.993Z,132.53
2018-12-17T18:32:09.456Z,130.60
2018-12-17T18:34:39.663Z,122.27
2018-12-17T18:37:09.912Z,131.63
2018-12-17T18:39:40.917Z,124.90
2018-12-17T18:42:12.011Z,131.00
2018-12-17T18:44:43.626Z,140.27
2018-12-17T18:47:14.443Z,127.50
2018-12-17T18:49:44.948Z,139.43
2018-12-17T18:52:15.370Z,142.37
2018-12-17T18:54:46.304Z,141.40
2018-12-17T18:57:16.379Z,139.63
2018-12-17T18:59:46.785Z,139.77
2018-12-17T19:02:17.826Z,139.43
2018-12-17T19:04:48.793Z,144.10
2018-12-17T19:07:19.137Z,146.90
2018-12-17T19:09:50.568Z,152.33
2018-12-17T19:12:20.901Z,153.47
2018-12-17T19:14:51.091Z,146.20
2018-12-17T19:17:21.454Z,140.50
2018-12-17T19:19:51.955Z,140.50
2018-12-17T19:22:23.589Z,142.30
2018-12-17T19:24:54.051Z,147.43
2018-12-17T19:27:24.604Z,144.00
2018-12-17T19:29:55.134Z,141.13
2018-12-17T19:32:25.616Z,142.13
2018-12-17T19:34:56.234Z,139.87
2018-12-17T19:37:27.257Z,138.73
2018-12-17T19:39:57.602Z,143.73
2018-12-17T19:42:27.813Z,148.00
2018-12-17T19:44:58.351Z,143.43
2018-12-17T19:47:28.765Z,136.23
2018-12-17T19:49:59.261Z,143.03
2018-12-17T19:52:29.734Z,135.30
2018-12-17T19:55:00.125Z,137.70
2018-12-17T19:57:30.974Z,147.47
2018-12-17T20:00:01.442Z,141.40
2018-12-17T20:02:32.104Z,137.10
2018-12-17T20:05:02.857Z,142.47
2018-12-17T20:07:33.092Z,147.17
2018-12-17T20:10:04.645Z,141.53
2018-12-17T20:12:35.284Z,138.90
2018-12-17T20:15:06.440Z,139.63
2018-12-17T20:17:36.448Z,142.90
2018-12-17T20:20:07.548Z,139.10
2018-12-17T20:22:37.897Z,181.17
2018-12-17T20:25:08.272Z,179.07
2018-12-17T20:27:38.524Z,163.93
2018-12-17T20:30:10.992Z,163.57
2018-12-17T20:32:41.903Z,160.73
2018-12-17T20:35:12.896Z,154.17
2018-12-17T20:37:43.764Z,150.00
2018-12-17T20:40:15.087Z,178.77
2018-12-17T20:42:46.494Z,168.13
2018-12-17T20:45:17.005Z,156.03
2018-12-17T20:47:47.407Z,179.63
2018-12-17T20:50:18.294Z,163.40
2018-12-17T20:52:49.260Z,164.00
2018-12-17T20:55:19.716Z,165.53
2018-12-17T20:57:49.837Z,173.33
2018-12-17T21:00:20.091Z,168.77
2018-12-17T21:03:00.190Z,149.83
2018-12-17T21:05:28.402Z,157.60
2018-12-17T21:07:58.680Z,148.93
2018-12-17T21:10:29.394Z,155.40
2018-12-17T21:12:59.656Z,155.10
2018-12-17T21:15:29.843Z,152.20
2018-12-17T21:18:00.457Z,144.00
2018-12-17T21:20:30.846Z,142.27
2018-12-17T21:23:02.055Z,153.10
2018-12-17T21:25:33.289Z,145.27
2018-12-17T21:28:03.595Z,150.63
2018-12-17T21:30:33.955Z,150.20
2018-12-17T21:33:06.901Z,143.03
2018-12-17T21:35:38.572Z,138.57
2018-12-17T21:38:08.720Z,142.37
2018-12-17T21:40:39.137Z,151.90
2018-12-17T21:43:09.759Z,142.97
2018-12-17T21:45:40.611Z,142.77
2018-12-17T21:48:11.012Z,146.37
2018-12-17T21:50:42.545Z,144.43
2018-12-17T21:53:13.753Z,151.73
2018-12-17T21:55:44.236Z,154.30
2018-12-17T21:58:15.141Z,149.67
2018-12-17T22:00:45.525Z,150.33
2018-12-17T22:03:16.042Z,123.87
2018-12-17T22:05:46.373Z,132.43
2018-12-17T22:08:16.755Z,136.97
2018-12-17T22:10:47.135Z,129.63
2018-12-17T22:13:17.417Z,128.00
2018-12-17T22:15:47.886Z,136.03
2018-12-17T22:18:18.279Z,130.30
2018-12-17T22:20:48.922Z,132.90
2018-12-17T22:23:20.745Z,138.67
2018-12-17T22:25:51.406Z,139.37
2018-12-17T22:28:22.822Z,142.63
2018-12-17T22:30:53.864Z,144.20
2018-12-17T22:33:24.857Z,143.97
2018-12-17T22:35:56.097Z,144.30
2018-12-17T22:38:26.908Z,147.60
2018-12-17T22:40:57.745Z,145.87
2018-12-17T22:43:28.434Z,153.93
2018-12-17T22:45:59.716Z,150.90
2018-12-17T22:48:30.508Z,151.10
2018-12-17T22:51:01.112Z,158.60
2018-12-17T22:53:31.799Z,161.47
2018-12-17T22:56:02.361Z,170.70
2018-12-17T22:58:32.941Z,167.00
2018-12-17T23:01:04.590Z,176.87
2018-12-17T23:03:37.828Z,170.60
2018-12-17T23:06:08.036Z,174.37
2018-12-17T23:08:41.740Z,173.07
2018-12-17T23:11:23.399Z,181.17
2018-12-17T23:14:05.057Z,170.60
2018-12-17T23:16:46.355Z,179.23
2018-12-17T23:19:15.587Z,176.47
2018-12-17T23:21:47.865Z,180.43
2018-12-17T23:24:21.083Z,167.17
2018-12-17T23:26:53.538Z,160.13
2018-12-17T23:29:23.966Z,161.30
2018-12-17T23:31:54.630Z,155.57
2018-12-17T23:34:25.022Z,149.63
2018-12-17T23:36:55.538Z,155.00
2018-12-17T23:39:25.888Z,152.67
2018-12-17T23:41:56.404Z,154.57
2018-12-17T23:44:27.073Z,115.33
2018-12-17T23:46:57.176Z,98.70
2018-12-17T23:49:27.711Z,97.20
2018-12-17T23:51:58.136Z,97.20
2018-12-17T23:54:28.436Z,101.97
2018-12-17T23:56:58.743Z,123.40
2018-12-17T23:59:29.100Z,120.23
